Time;durP1;ratioP1;P1;durP2;ratioP2;P2;SDS_P1;SDS_P2;PMS_P1;PMS_P2;Temp;Humidity;BMP_temperature;BMP_pressure;BME280_temperature;BME280_humidity;BME280_pressure;Samples;Min_cycle;Max_cycle;Signal;HPM_P1;HPM_P2
2023/04/22 00:00:00;;;;;;;11.15;6.32;;;12.90;1.00;;;;;;4969002;28;20046;-67
2023/04/22 00:02:26;;;;;;;9.65;6.90;;;12.90;1.00;;;;;;4959876;28;20045;-66
2023/04/22 00:04:51;;;;;;;9.40;7.82;;;13.00;1.00;;;;;;4980015;28;20446;-66
2023/04/22 00:07:17;;;;;;;11.82;8.52;;;13.00;1.00;;;;;;4981919;28;20068;-66
2023/04/22 00:09:44;;;;;;;13.52;8.85;;;12.90;1.00;;;;;;4962835;28;20046;-66
2023/04/22 00:12:11;;;;;;;11.38;9.10;;;12.70;54.10;;;;;;4980545;28;20045;-66
2023/04/22 00:14:37;;;;;;;10.98;9.38;;;12.60;99.90;;;;;;4964426;28;20048;-66
2023/04/22 00:17:03;;;;;;;14.23;10.13;;;12.30;99.90;;;;;;4942275;28;20124;-66
2023/04/22 00:19:29;;;;;;;10.80;9.32;;;12.10;99.90;;;;;;4961622;28;20045;-66
2023/04/22 00:21:55;;;;;;;10.25;9.20;;;12.00;99.90;;;;;;4956696;28;20052;-66
2023/04/22 00:24:21;;;;;;;11.27;10.05;;;11.90;99.90;;;;;;4944041;28;20057;-66
2023/04/22 00:26:46;;;;;;;10.20;8.63;;;11.90;99.90;;;;;;4961307;28;20404;-66
2023/04/22 00:29:12;;;;;;;11.20;9.55;;;11.90;99.90;;;;;;4965696;28;20187;-66
2023/04/22 00:31:38;;;;;;;13.55;9.57;;;11.80;99.90;;;;;;4959315;28;20156;-66
2023/04/22 00:34:03;;;;;;;11.70;10.55;;;11.80;99.90;;;;;;4961405;28;20497;-66
2023/04/22 00:36:30;;;;;;;14.35;10.00;;;11.70;99.90;;;;;;4962771;28;20304;-66
2023/04/22 00:38:55;;;;;;;10.70;9.60;;;11.60;99.90;;;;;;4962646;28;20046;-66
2023/04/22 00:41:21;;;;;;;13.57;10.02;;;11.60;99.90;;;;;;4958157;28;20321;-66
2023/04/22 00:43:48;;;;;;;12.80;9.48;;;11.60;99.90;;;;;;4960992;28;20038;-66
2023/04/22 00:46:15;;;;;;;13.48;10.45;;;11.60;99.90;;;;;;4960325;28;20043;-66
2023/04/22 00:48:41;;;;;;;12.27;9.68;;;11.60;99.90;;;;;;4955628;28;20202;-66
2023/04/22 00:51:06;;;;;;;14.18;10.38;;;11.50;99.90;;;;;;4978732;28;20633;-66
2023/04/22 00:53:32;;;;;;;14.98;9.95;;;11.50;99.90;;;;;;4961606;28;20072;-66
2023/04/22 00:55:58;;;;;;;12.20;10.40;;;11.40;99.90;;;;;;4957104;28;20053;-66
2023/04/22 00:58:27;;;;;;;11.13;10.00;;;11.40;99.90;;;;;;4978377;28;20248;-66
2023/04/22 01:00:53;;;;;;;11.02;9.85;;;11.30;99.90;;;;;;4943696;28;20037;-66
2023/04/22 01:03:19;;;;;;;11.90;10.68;;;11.30;99.90;;;;;;4956941;28;20621;-66
2023/04/22 01:05:48;;;;;;;13.75;10.25;;;11.30;99.90;;;;;;4943671;28;20258;-66
2023/04/22 01:08:14;;;;;;;12.45;9.70;;;11.30;99.90;;;;;;4958950;28;20094;-66
2023/04/22 01:10:41;;;;;;;11.35;9.32;;;11.30;99.90;;;;;;4955998;28;20052;-66
2023/04/22 01:13:07;;;;;;;12.45;9.38;;;11.40;99.90;;;;;;4960280;28;20042;-66
2023/04/22 01:15:33;;;;;;;10.15;9.07;;;11.40;99.90;;;;;;4927836;28;20082;-66
2023/04/22 01:18:00;;;;;;;11.50;10.30;;;11.50;99.90;;;;;;4958008;28;20105;-66
2023/04/22 01:20:30;;;;;;;12.48;9.95;;;11.50;99.90;;;;;;4959831;28;20403;-66
2023/04/22 01:22:57;;;;;;;15.10;10.88;;;11.50;99.90;;;;;;4961406;28;20049;-66
2023/04/22 01:25:24;;;;;;;12.15;10.85;;;11.50;99.90;;;;;;4961792;28;20057;-66
2023/04/22 01:27:50;;;;;;;11.50;10.25;;;11.50;99.90;;;;;;4944162;28;20073;-65
2023/04/22 01:30:16;;;;;;;11.55;10.35;;;11.50;99.90;;;;;;4961896;28;20197;-66
2023/04/22 01:32:42;;;;;;;11.25;10.00;;;11.40;99.90;;;;;;4959097;28;20034;-65
2023/04/22 01:35:09;;;;;;;11.88;10.23;;;11.40;99.90;;;;;;4962387;28;20538;-66
2023/04/22 01:37:34;;;;;;;11.68;10.48;;;11.40;99.90;;;;;;4957544;28;20412;-66
2023/04/22 01:40:01;;;;;;;13.55;10.55;;;11.40;99.90;;;;;;4959893;28;20037;-67
2023/04/22 01:42:27;;;;;;;11.95;10.75;;;11.40;99.90;;;;;;4968971;28;20034;-66
2023/04/22 01:44:54;;;;;;;13.52;9.63;;;11.40;99.90;;;;;;4961513;28;20046;-66
2023/04/22 01:47:19;;;;;;;13.65;10.13;;;11.40;99.90;;;;;;4962487;28;20297;-66
2023/04/22 01:49:46;;;;;;;12.70;9.18;;;11.40;99.90;;;;;;4980867;28;20046;-67
2023/04/22 01:52:12;;;;;;;11.88;10.07;;;11.40;99.90;;;;;;4962017;28;20412;-66
2023/04/22 01:54:37;;;;;;;11.85;10.65;;;11.40;99.90;;;;;;4942420;28;20046;-66
2023/04/22 01:57:10;;;;;;;12.68;10.13;;;11.40;99.90;;;;;;4983410;28;20046;-66
2023/04/22 01:59:36;;;;;;;11.65;10.45;;;11.40;99.90;;;;;;4958809;28;20042;-65
2023/04/22 02:02:01;;;;;;;13.82;10.73;;;11.40;99.90;;;;;;4964436;28;20354;-66
2023/04/22 02:04:27;;;;;;;11.70;10.60;;;11.40;99.90;;;;;;4946562;28;20485;-65
2023/04/22 02:06:53;;;;;;;10.57;9.48;;;11.40;99.90;;;;;;4961448;28;20265;-66
2023/04/22 02:09:18;;;;;;;10.32;9.32;;;11.50;99.90;;;;;;4941622;28;20069;-66
2023/04/22 02:11:44;;;;;;;17.08;9.57;;;11.60;99.90;;;;;;4961628;28;20053;-66
2023/04/22 02:14:10;;;;;;;10.15;8.43;;;11.60;99.90;;;;;;4963285;28;20060;-66
2023/04/22 02:16:36;;;;;;;11.98;8.18;;;11.60;99.90;;;;;;4981868;28;20846;-65
2023/04/22 02:19:01;;;;;;;11.63;9.20;;;11.60;99.90;;;;;;4963156;28;20053;-66
2023/04/22 02:21:28;;;;;;;11.15;8.85;;;11.60;99.90;;;;;;4961178;28;20432;-66
2023/04/22 02:23:54;;;;;;;10.20;8.95;;;11.60;99.90;;;;;;4964308;28;20324;-66
2023/04/22 02:26:20;;;;;;;12.90;9.27;;;11.60;99.90;;;;;;4977880;28;20370;-66
2023/04/22 02:28:45;;;;;;;12.55;9.15;;;11.50;99.90;;;;;;4932478;28;20117;-66
2023/04/22 02:31:11;;;;;;;11.88;8.93;;;11.50;99.90;;;;;;4975478;28;20298;-65
2023/04/22 02:33:37;;;;;;;12.25;8.88;;;11.50;99.90;;;;;;4965532;28;20042;-66
2023/04/22 02:36:03;;;;;;;8.95;7.97;;;11.50;99.90;;;;;;4959875;28;20074;-66
2023/04/22 02:38:29;;;;;;;10.15;8.90;;;11.50;99.90;;;;;;4980451;28;20111;-66
2023/04/22 02:40:55;;;;;;;10.15;8.60;;;11.50;99.90;;;;;;4978110;28;20045;-66
2023/04/22 02:43:20;;;;;;;13.13;9.00;;;11.60;99.90;;;;;;4981651;28;20042;-66
2023/04/22 02:45:46;;;;;;;12.70;8.40;;;11.50;99.90;;;;;;4978498;28;20046;-66
2023/04/22 02:48:12;;;;;;;12.02;9.20;;;11.50;99.90;;;;;;4964679;28;20531;-66
2023/04/22 02:50:37;;;;;;;13.07;8.82;;;11.50;99.90;;;;;;4962014;28;20455;-65
2023/04/22 02:53:03;;;;;;;11.05;8.90;;;11.40;99.90;;;;;;4962141;28;20042;-66
2023/04/22 02:55:29;;;;;;;10.95;8.13;;;11.30;99.90;;;;;;4942813;28;20308;-66
2023/04/22 02:57:54;;;;;;;9.55;8.38;;;11.20;99.90;;;;;;4978210;28;20494;-66
2023/04/22 03:00:20;;;;;;;9.77;8.77;;;11.10;99.90;;;;;;4960026;28;20165;-66
2023/04/22 03:02:46;;;;;;;10.63;8.02;;;11.10;99.90;;;;;;4963297;28;20046;-66
2023/04/22 03:05:11;;;;;;;9.38;7.70;;;11.00;99.90;;;;;;4959201;28;20048;-66
2023/04/22 03:07:37;;;;;;;9.15;8.07;;;11.00;99.90;;;;;;4961232;28;20054;-65
2023/04/22 03:10:03;;;;;;;9.63;8.45;;;10.90;99.90;;;;;;4960825;28;20218;-66
2023/04/22 03:12:29;;;;;;;12.02;9.15;;;10.90;99.90;;;;;;4945786;28;20512;-66
2023/04/22 03:14:55;;;;;;;11.85;8.13;;;10.90;99.90;;;;;;4945868;28;20245;-66
2023/04/22 03:17:21;;;;;;;12.43;9.07;;;10.90;99.90;;;;;;4967027;28;20169;-66
2023/04/22 03:19:46;;;;;;;11.30;10.20;;;10.90;99.90;;;;;;4963371;28;20545;-66
2023/04/22 03:22:12;;;;;;;13.48;10.07;;;10.80;99.90;;;;;;4972732;28;20104;-65
2023/04/22 03:24:38;;;;;;;10.68;9.48;;;10.70;99.90;;;;;;4979010;28;20042;-66
2023/04/22 03:27:04;;;;;;;11.50;9.40;;;10.70;99.90;;;;;;4962229;28;20149;-66
2023/04/22 03:29:30;;;;;;;11.48;10.27;;;10.80;99.90;;;;;;4940427;28;20035;-65
2023/04/22 03:31:55;;;;;;;11.93;10.25;;;10.80;99.90;;;;;;4928646;28;20129;-65
2023/04/22 03:34:22;;;;;;;12.27;9.13;;;10.90;99.90;;;;;;4983174;28;20038;-66
2023/04/22 03:36:47;;;;;;;9.75;8.60;;;10.90;99.90;;;;;;4955608;28;20042;-66
2023/04/22 03:39:13;;;;;;;13.80;10.80;;;11.00;99.90;;;;;;4961183;28;20042;-65
2023/04/22 03:41:39;;;;;;;13.93;11.63;;;11.00;99.90;;;;;;4944245;28;20641;-65
2023/04/22 03:44:05;;;;;;;13.35;11.88;;;10.90;99.90;;;;;;4958811;28;20109;-65
2023/04/22 03:46:30;;;;;;;13.88;11.73;;;10.80;99.90;;;;;;4961850;28;20038;-66
2023/04/22 03:48:56;;;;;;;12.65;11.32;;;10.70;99.90;;;;;;4960529;28;20440;-66
2023/04/22 03:51:22;;;;;;;12.60;10.85;;;10.70;99.90;;;;;;4959942;28;20039;-65
2023/04/22 03:53:47;;;;;;;15.23;12.02;;;10.70;99.90;;;;;;4965765;28;20120;-66
2023/04/22 03:56:13;;;;;;;14.30;11.73;;;10.70;99.90;;;;;;4959227;28;20395;-65
2023/04/22 03:58:38;;;;;;;11.07;9.88;;;10.70;99.90;;;;;;4978977;28;20365;-65
2023/04/22 04:01:04;;;;;;;12.50;10.43;;;10.80;99.90;;;;;;4961574;28;20376;-65
2023/04/22 04:03:30;;;;;;;13.48;10.57;;;10.90;99.90;;;;;;4947681;28;20046;-65
2023/04/22 04:05:55;;;;;;;11.73;10.52;;;10.80;99.90;;;;;;4965706;28;20278;-66
2023/04/22 04:08:21;;;;;;;13.10;10.00;;;10.80;99.90;;;;;;4943119;28;20106;-65
2023/04/22 04:10:47;;;;;;;10.75;9.65;;;10.80;99.90;;;;;;4960374;28;20065;-65
2023/04/22 04:13:12;;;;;;;11.07;10.02;;;10.80;99.90;;;;;;4959519;28;20309;-66
2023/04/22 04:15:38;;;;;;;11.25;10.10;;;10.80;99.90;;;;;;4951569;28;20061;-66
2023/04/22 04:18:04;;;;;;;12.85;10.95;;;10.90;99.90;;;;;;4950080;28;20674;-66
2023/04/22 04:20:29;;;;;;;14.27;10.77;;;10.80;99.90;;;;;;4959843;28;20046;-66
2023/04/22 04:22:55;;;;;;;11.93;8.50;;;10.70;99.90;;;;;;4963300;28;20120;-65
2023/04/22 04:25:21;;;;;;;12.68;10.98;;;10.70;99.90;;;;;;4959560;28;20402;-66
2023/04/22 04:27:50;;;;;;;11.50;9.65;;;10.70;99.90;;;;;;4961189;28;20255;-66
2023/04/22 04:30:18;;;;;;;11.90;10.65;;;10.70;99.90;;;;;;4959112;28;20042;-65
2023/04/22 04:32:44;;;;;;;11.35;9.35;;;10.70;99.90;;;;;;4958907;28;20034;-65
2023/04/22 04:35:12;;;;;;;14.35;9.52;;;10.70;99.90;;;;;;4940593;28;20583;-66
2023/04/22 04:37:39;;;;;;;13.77;11.35;;;10.70;99.90;;;;;;4977611;28;20396;-66
2023/04/22 04:40:06;;;;;;;12.57;10.85;;;10.70;99.90;;;;;;4963138;28;21504;-65
2023/04/22 04:42:32;;;;;;;13.82;11.40;;;10.70;99.90;;;;;;4960305;28;20346;-65
2023/04/22 04:44:58;;;;;;;13.88;12.48;;;10.60;99.90;;;;;;4973895;28;20116;-66
2023/04/22 04:47:24;;;;;;;13.35;11.95;;;10.60;99.90;;;;;;4955045;28;20152;-65
2023/04/22 04:49:53;;;;;;;14.98;10.68;;;10.50;99.90;;;;;;4962008;28;20049;-65
2023/04/22 04:52:19;;;;;;;10.90;9.88;;;10.50;99.90;;;;;;4943075;28;20095;-65
2023/04/22 04:54:45;;;;;;;12.43;11.13;;;10.50;99.90;;;;;;4957641;28;20041;-66
2023/04/22 04:57:11;;;;;;;16.83;12.20;;;10.50;99.90;;;;;;4962279;28;20048;-65
2023/04/22 04:59:36;;;;;;;11.88;10.68;;;10.40;99.90;;;;;;4959599;28;20042;-65
2023/04/22 05:02:02;;;;;;;14.15;11.48;;;10.40;99.90;;;;;;4941702;28;20062;-65
2023/04/22 05:04:27;;;;;;;12.07;10.77;;;10.30;99.90;;;;;;4959807;28;20038;-66
2023/04/22 05:06:53;;;;;;;12.75;11.45;;;10.30;99.90;;;;;;4957992;28;20388;-66
2023/04/22 05:09:19;;;;;;;12.23;11.02;;;10.20;99.90;;;;;;4965029;28;20360;-65
2023/04/22 05:11:45;;;;;;;12.35;10.35;;;10.20;99.90;;;;;;4960312;28;20046;-65
2023/04/22 05:14:10;;;;;;;11.82;10.05;;;10.20;99.90;;;;;;4956864;28;20050;-65
2023/04/22 05:16:36;;;;;;;11.82;9.88;;;10.30;99.90;;;;;;4956439;28;20142;-65
2023/04/22 05:19:02;;;;;;;12.07;9.48;;;10.30;99.90;;;;;;4954953;28;20361;-65
2023/04/22 05:21:27;;;;;;;11.75;9.95;;;10.40;99.90;;;;;;4943573;28;20049;-65
2023/04/22 05:23:53;;;;;;;13.88;10.15;;;10.50;99.90;;;;;;4973989;28;20042;-65
2023/04/22 05:26:19;;;;;;;11.18;9.63;;;10.60;99.90;;;;;;4963766;28;20493;-65
2023/04/22 05:28:44;;;;;;;12.65;9.75;;;10.70;99.90;;;;;;4945768;28;20045;-65
2023/04/22 05:31:10;;;;;;;12.32;9.63;;;10.90;99.90;;;;;;4945394;28;20049;-65
2023/04/22 05:33:35;;;;;;;11.95;10.48;;;11.10;99.90;;;;;;4963307;28;20086;-65
2023/04/22 05:36:01;;;;;;;15.52;10.85;;;11.20;99.90;;;;;;4958670;28;20360;-65
2023/04/22 05:38:27;;;;;;;13.82;9.63;;;11.30;99.90;;;;;;4963028;28;20077;-65
2023/04/22 05:40:52;;;;;;;12.15;10.15;;;11.20;99.90;;;;;;4962089;28;20179;-65
2023/04/22 05:43:18;;;;;;;13.35;10.68;;;11.10;99.90;;;;;;4944988;28;20037;-65
2023/04/22 05:45:44;;;;;;;14.02;12.02;;;11.00;99.90;;;;;;4961396;28;20093;-65
2023/04/22 05:48:09;;;;;;;11.60;10.40;;;10.80;99.90;;;;;;4960924;28;20524;-65
2023/04/22 05:50:38;;;;;;;11.68;10.48;;;10.70;99.90;;;;;;4961869;28;20049;-65
2023/04/22 05:53:04;;;;;;;12.00;10.80;;;10.60;99.90;;;;;;4964105;28;20404;-65
2023/04/22 05:55:30;;;;;;;12.63;10.32;;;10.60;99.90;;;;;;4946479;28;20046;-65
2023/04/22 05:57:55;;;;;;;13.18;10.40;;;10.60;99.90;;;;;;4947071;28;20049;-65
2023/04/22 06:00:21;;;;;;;13.57;10.68;;;10.60;99.90;;;;;;4966139;28;20043;-65
2023/04/22 06:02:47;;;;;;;12.95;10.30;;;10.70;99.90;;;;;;4959080;28;20053;-65
2023/04/22 06:05:12;;;;;;;14.02;9.90;;;10.80;99.90;;;;;;4962699;28;20233;-66
2023/04/22 06:07:39;;;;;;;14.27;9.77;;;10.90;99.90;;;;;;4958923;28;20108;-65
2023/04/22 06:10:05;;;;;;;14.68;9.85;;;11.00;99.90;;;;;;4944826;28;20031;-65
2023/04/22 06:12:32;;;;;;;13.50;9.50;;;11.20;99.90;;;;;;4960267;28;20240;-65
2023/04/22 06:14:58;;;;;;;14.15;9.27;;;11.30;99.90;;;;;;4945179;28;20105;-65
2023/04/22 06:17:24;;;;;;;13.23;8.27;;;11.40;99.90;;;;;;4961490;28;21131;-66
2023/04/22 06:19:50;;;;;;;13.07;8.18;;;11.60;99.90;;;;;;4948287;28;20528;-65
2023/04/22 06:22:15;;;;;;;14.32;7.93;;;11.70;99.90;;;;;;4946071;28;20077;-65
2023/04/22 06:24:41;;;;;;;11.15;8.00;;;11.70;99.90;;;;;;4943677;28;20300;-65
2023/04/22 06:27:06;;;;;;;10.10;8.27;;;11.80;99.90;;;;;;4944811;28;20038;-65
2023/04/22 06:29:32;;;;;;;10.35;7.57;;;11.90;99.90;;;;;;4947984;28;20089;-65
2023/04/22 06:31:58;;;;;;;11.98;7.50;;;12.00;99.90;;;;;;4960473;28;20045;-65
2023/04/22 06:34:24;;;;;;;9.90;8.27;;;12.10;99.90;;;;;;4963991;28;20033;-65
2023/04/22 06:36:50;;;;;;;11.80;8.15;;;12.10;99.90;;;;;;4961285;28;20096;-65
2023/04/22 06:39:16;;;;;;;12.77;7.70;;;12.10;99.90;;;;;;4963438;28;20049;-65
2023/04/22 06:41:43;;;;;;;9.77;7.85;;;12.20;99.90;;;;;;4944472;28;20042;-65
2023/04/22 06:44:08;;;;;;;10.20;7.57;;;12.20;99.90;;;;;;4944548;28;20046;-65
2023/04/22 06:46:35;;;;;;;9.70;7.63;;;12.20;99.90;;;;;;4964109;28;20049;-65
2023/04/22 06:49:00;;;;;;;12.55;8.40;;;12.30;99.90;;;;;;4955312;28;20126;-65
2023/04/22 06:51:26;;;;;;;13.30;8.85;;;12.30;99.90;;;;;;4962641;28;20402;-65
2023/04/22 06:53:52;;;;;;;9.88;8.18;;;12.40;99.90;;;;;;4961043;28;20593;-65
2023/04/22 06:56:17;;;;;;;12.38;8.80;;;12.50;99.90;;;;;;4963507;28;20041;-65
2023/04/22 06:58:43;;;;;;;9.15;6.82;;;12.60;99.90;;;;;;4965598;28;20038;-66
2023/04/22 07:01:09;;;;;;;11.68;7.50;;;12.70;99.90;;;;;;4959773;28;20304;-66
2023/04/22 07:03:34;;;;;;;10.45;7.57;;;12.80;99.90;;;;;;4971215;28;20053;-65
2023/04/22 07:06:00;;;;;;;13.40;8.00;;;12.90;99.90;;;;;;4964945;28;20129;-65
2023/04/22 07:08:26;;;;;;;8.95;7.57;;;13.00;99.90;;;;;;4967610;28;20500;-65
2023/04/22 07:10:51;;;;;;;12.23;7.82;;;13.10;99.90;;;;;;4983981;28;20120;-65
2023/04/22 07:13:17;;;;;;;8.60;7.70;;;13.10;99.90;;;;;;4956256;28;20065;-65
2023/04/22 07:15:45;;;;;;;12.40;7.68;;;13.20;99.90;;;;;;4966551;28;20065;-65
2023/04/22 07:18:10;;;;;;;12.23;7.32;;;13.30;99.90;;;;;;4958134;28;20057;-66
2023/04/22 07:20:36;;;;;;;9.32;6.40;;;13.30;99.90;;;;;;4961088;28;20042;-65
2023/04/22 07:23:02;;;;;;;9.75;6.78;;;13.40;99.90;;;;;;4961895;28;20180;-66
2023/04/22 07:25:27;;;;;;;10.38;7.20;;;13.40;99.90;;;;;;4961031;28;20038;-65
2023/04/22 07:27:53;;;;;;;9.05;7.20;;;13.40;99.90;;;;;;4944401;28;20045;-65
2023/04/22 07:30:19;;;;;;;11.50;7.60;;;13.50;99.90;;;;;;4959897;28;20724;-65
2023/04/22 07:32:44;;;;;;;10.45;7.05;;;13.60;99.90;;;;;;4960715;28;20034;-65
2023/04/22 07:35:10;;;;;;;10.95;7.82;;;13.60;99.90;;;;;;4952941;28;20368;-64
2023/04/22 07:37:36;;;;;;;10.73;7.38;;;13.60;99.90;;;;;;4943796;28;20140;-65
2023/04/22 07:40:02;;;;;;;8.73;7.65;;;13.70;99.90;;;;;;4957635;28;20578;-65
2023/04/22 07:42:27;;;;;;;11.90;7.50;;;13.80;99.90;;;;;;4959393;28;20057;-65
2023/04/22 07:44:53;;;;;;;12.20;7.68;;;13.90;99.90;;;;;;4960831;28;20050;-65
2023/04/22 07:47:19;;;;;;;8.60;7.30;;;13.90;99.90;;;;;;4948007;28;20157;-64
2023/04/22 07:49:45;;;;;;;10.40;7.55;;;14.00;99.90;;;;;;4987426;28;20112;-65
2023/04/22 07:52:11;;;;;;;8.05;7.25;;;14.20;99.90;;;;;;4992730;28;20101;-66
2023/04/22 07:54:37;;;;;;;10.00;8.68;;;14.30;99.90;;;;;;4972911;28;20384;-65
2023/04/22 07:57:02;;;;;;;9.93;7.95;;;14.30;99.90;;;;;;4955062;28;20054;-65
2023/04/22 07:59:28;;;;;;;11.15;8.90;;;14.50;99.90;;;;;;4938339;28;20217;-65
2023/04/22 08:01:53;;;;;;;11.73;8.50;;;14.70;99.90;;;;;;4957452;28;20073;-65
2023/04/22 08:04:22;;;;;;;9.57;7.93;;;14.80;99.90;;;;;;4957474;28;20085;-65
2023/04/22 08:06:47;;;;;;;10.98;7.97;;;15.00;99.90;;;;;;4957849;28;20475;-65
2023/04/22 08:09:13;;;;;;;8.73;7.78;;;15.10;99.90;;;;;;4973302;28;20486;-65
2023/04/22 08:11:39;;;;;;;9.95;7.57;;;15.20;99.90;;;;;;4973346;28;20052;-65
2023/04/22 08:14:04;;;;;;;8.80;7.15;;;15.30;99.90;;;;;;4957399;28;20717;-65
2023/04/22 08:16:30;;;;;;;9.10;7.63;;;15.50;99.90;;;;;;4919072;28;1106257;-66
2023/04/22 08:18:56;;;;;;;8.55;7.38;;;15.70;99.90;;;;;;4974483;28;20111;-65
2023/04/22 08:21:22;;;;;;;8.93;7.13;;;15.80;99.90;;;;;;4957720;28;20594;-65
2023/04/22 08:23:48;;;;;;;8.13;7.00;;;16.00;99.90;;;;;;4957873;28;20441;-65
2023/04/22 08:26:15;;;;;;;8.23;7.25;;;16.10;99.90;;;;;;4973642;28;20049;-65
2023/04/22 08:28:41;;;;;;;6.97;6.30;;;16.00;99.90;;;;;;4973683;28;20046;-65
2023/04/22 08:31:09;;;;;;;8.88;6.72;;;16.10;97.00;;;;;;4957759;28;20355;-65
2023/04/22 08:33:34;;;;;;;7.97;7.18;;;16.10;81.50;;;;;;4955432;28;20254;-65
2023/04/22 08:36:02;;;;;;;7.18;6.47;;;16.10;81.20;;;;;;4939037;28;20133;-65
2023/04/22 08:38:28;;;;;;;7.88;7.07;;;16.30;39.20;;;;;;4955470;28;20046;-65
2023/04/22 08:40:56;;;;;;;7.43;6.60;;;16.20;37.80;;;;;;4970868;28;20054;-65
2023/04/22 08:43:21;;;;;;;6.93;6.22;;;16.30;43.30;;;;;;4954768;28;20461;-65
2023/04/22 08:45:48;;;;;;;8.50;6.63;;;16.40;53.60;;;;;;4954566;28;20057;-65
2023/04/22 08:48:16;;;;;;;8.70;6.68;;;16.60;47.20;;;;;;4955208;28;20078;-65
2023/04/22 08:50:42;;;;;;;9.70;6.30;;;16.80;39.60;;;;;;4954324;28;20052;-65
2023/04/22 08:53:07;;;;;;;7.90;6.47;;;17.00;15.90;;;;;;4955199;28;20050;-65
2023/04/22 08:55:34;;;;;;;9.68;5.63;;;17.70;13.60;;;;;;4938857;28;20050;-65
2023/04/22 08:58:03;;;;;;;5.75;5.20;;;18.60;1.00;;;;;;4957863;28;20122;-65
2023/04/22 09:00:30;;;;;;;5.88;5.07;;;19.10;1.00;;;;;;4958970;28;20050;-65
2023/04/22 09:03:00;;;;;;;6.25;4.97;;;19.40;99.90;;;;;;4976619;28;20327;-65
2023/04/22 09:05:27;;;;;;;5.95;4.82;;;19.80;99.90;;;;;;4958727;28;20074;-66
2023/04/22 09:07:53;;;;;;;5.22;4.63;;;20.20;99.90;;;;;;4958681;28;20321;-65
2023/04/22 09:10:19;;;;;;;5.57;4.93;;;20.10;99.90;;;;;;4942505;28;20147;-65
2023/04/22 09:12:45;;;;;;;6.18;4.70;;;20.10;99.90;;;;;;4942742;28;20038;-65
2023/04/22 09:15:11;;;;;;;5.03;4.60;;;20.10;99.90;;;;;;4959052;28;20152;-65
2023/04/22 09:17:37;;;;;;;7.03;4.60;;;20.30;99.90;;;;;;4942779;28;20276;-66
2023/04/22 09:20:05;;;;;;;5.38;4.88;;;20.50;99.90;;;;;;4941792;28;20046;-65
2023/04/22 09:22:43;;;;;;;6.32;4.93;;;20.30;99.90;;;;;;4977093;28;20045;-65
2023/04/22 09:25:16;;;;;;;5.28;4.82;;;20.30;99.90;;;;;;4976755;28;20046;-65
2023/04/22 09:27:42;;;;;;;7.18;4.50;;;20.30;99.90;;;;;;4961172;28;20038;-65
2023/04/22 09:30:09;;;;;;;5.32;4.70;;;20.20;99.90;;;;;;4960369;28;20555;-65
2023/04/22 09:32:34;;;;;;;5.88;4.70;;;20.00;99.90;;;;;;4976279;28;20193;-66
2023/04/22 09:35:00;;;;;;;5.50;4.95;;;19.90;99.90;;;;;;4976778;28;20053;-65
2023/04/22 09:37:27;;;;;;;6.15;5.55;;;20.10;99.90;;;;;;4976743;28;20115;-65
2023/04/22 09:39:53;;;;;;;5.95;4.82;;;20.30;99.90;;;;;;4976957;28;20448;-66
2023/04/22 09:42:20;;;;;;;7.00;4.80;;;20.50;99.90;;;;;;4976820;28;20573;-65
2023/04/22 09:44:51;;;;;;;6.15;4.13;;;20.80;99.90;;;;;;4976374;28;20351;-65
2023/04/22 09:47:18;;;;;;;7.20;4.75;;;21.00;99.90;;;;;;4976389;28;20050;-65
2023/04/22 09:49:48;;;;;;;4.82;4.32;;;21.10;99.90;;;;;;4975917;28;20049;-65
2023/04/22 09:52:23;;;;;;;5.15;4.50;;;21.20;99.90;;;;;;4960625;28;20544;-66
2023/04/22 09:54:53;;;;;;;5.00;4.43;;;21.10;99.90;;;;;;4960226;28;20045;-66
2023/04/22 09:57:21;;;;;;;5.15;4.15;;;21.70;99.90;;;;;;4976497;28;20057;-66
2023/04/22 09:59:50;;;;;;;4.70;4.20;;;21.90;99.90;;;;;;4959847;28;20085;-66
2023/04/22 10:02:15;;;;;;;5.63;4.47;;;22.30;99.90;;;;;;4976412;28;20053;-66
2023/04/22 10:04:41;;;;;;;4.47;4.07;;;22.50;99.90;;;;;;4994463;28;20041;-65
2023/04/22 10:07:07;;;;;;;4.78;4.05;;;22.70;99.90;;;;;;4976184;28;20129;-66
2023/04/22 10:09:33;;;;;;;4.40;4.00;;;23.00;99.90;;;;;;4960322;28;20061;-66
2023/04/22 10:12:00;;;;;;;4.32;3.72;;;23.00;99.90;;;;;;4975874;28;20052;-66
2023/04/22 10:14:26;;;;;;;3.13;2.92;;;22.40;99.90;;;;;;4976406;28;20038;-66
2023/04/22 10:17:02;;;;;;;4.95;3.30;;;21.90;99.90;;;;;;4967968;28;20057;-67
2023/04/22 10:19:28;;;;;;;3.80;3.50;;;21.30;99.90;;;;;;4985982;28;20054;-65
2023/04/22 10:22:00;;;;;;;3.75;3.40;;;21.00;99.90;;;;;;4985982;28;20042;-65
2023/04/22 10:24:33;;;;;;;3.88;3.47;;;21.00;99.90;;;;;;4969344;28;20492;-64
2023/04/22 10:27:05;;;;;;;6.30;4.57;;;21.00;99.90;;;;;;4984534;28;20038;-66
2023/04/22 10:29:39;;;;;;;6.95;5.00;;;21.30;99.90;;;;;;4969278;28;20193;-65
2023/04/22 10:32:08;;;;;;;10.70;4.45;;;21.60;99.90;;;;;;4968701;28;20049;-65
2023/04/22 10:34:37;;;;;;;3.50;3.20;;;22.00;99.90;;;;;;4985214;28;20046;-65
2023/04/22 10:37:11;;;;;;;2.97;2.78;;;22.20;99.90;;;;;;4985543;28;20061;-65
2023/04/22 10:39:39;;;;;;;3.30;3.00;;;22.00;99.90;;;;;;4969234;28;20046;-65
2023/04/22 10:42:05;;;;;;;4.20;3.17;;;22.10;99.90;;;;;;4969556;28;20050;-65
2023/04/22 10:45:03;;;;;;;3.53;3.20;;;22.30;99.90;;;;;;4986129;28;20050;-65
2023/04/22 10:47:34;;;;;;;3.45;3.15;;;22.50;99.90;;;;;;4943617;28;20058;-67
2023/04/22 10:50:16;;;;;;;4.50;3.63;;;22.70;99.90;;;;;;4967750;28;20049;-65
2023/04/22 10:52:49;;;;;;;4.53;3.47;;;23.00;99.90;;;;;;4984512;28;20306;-66
2023/04/22 10:55:17;;;;;;;5.25;4.75;;;23.30;99.90;;;;;;4985977;28;20288;-65
2023/04/22 10:57:45;;;;;;;5.30;4.90;;;23.30;99.90;;;;;;5003301;28;20042;-65
2023/04/22 11:00:39;;;;;;;5.40;4.95;;;23.20;99.90;;;;;;4984016;28;20041;-65
2023/04/22 11:03:04;;;;;;;4.95;4.40;;;22.80;99.90;;;;;;4969144;28;20046;-66
2023/04/22 11:05:31;;;;;;;6.10;4.60;;;22.70;99.90;;;;;;4985168;28;20443;-65
2023/04/22 11:08:19;;;;;;;3.45;2.97;;;22.60;99.90;;;;;;4967231;28;20121;-65
2023/04/22 11:10:52;;;;;;;5.15;4.68;;;22.40;99.90;;;;;;4984269;28;20042;-65
2023/04/22 11:13:21;;;;;;;4.72;4.15;;;22.30;99.90;;;;;;4969099;28;20396;-66
2023/04/22 11:15:49;;;;;;;4.80;4.30;;;22.00;99.90;;;;;;4968009;28;20058;-64
2023/04/22 11:18:21;;;;;;;7.50;3.97;;;21.80;99.90;;;;;;4952496;28;20112;-65
2023/04/22 11:20:48;;;;;;;3.85;3.17;;;21.90;99.90;;;;;;4955726;28;20045;-66
2023/04/22 11:23:19;;;;;;;4.63;3.65;;;22.40;99.90;;;;;;4958017;28;20084;-65
2023/04/22 11:25:45;;;;;;;5.22;3.67;;;22.90;99.90;;;;;;4956129;28;20053;-66
2023/04/22 11:28:11;;;;;;;4.82;3.47;;;22.90;99.90;;;;;;4958057;28;20377;-65
2023/04/22 11:30:36;;;;;;;4.53;3.20;;;22.90;99.90;;;;;;4966181;28;20642;-66
2023/04/22 11:33:02;;;;;;;3.33;3.03;;;23.00;99.90;;;;;;4948934;28;20746;-67
2023/04/22 11:35:33;;;;;;;3.97;3.30;;;22.80;99.90;;;;;;4957669;28;20137;-65
2023/04/22 11:38:07;;;;;;;2.60;2.40;;;23.20;99.90;;;;;;4969254;28;20045;-65
2023/04/22 11:40:41;;;;;;;2.83;2.63;;;23.50;99.90;;;;;;4965162;28;20069;-65
2023/04/22 11:43:08;;;;;;;3.70;2.72;;;23.80;99.90;;;;;;4963279;28;20268;-66
2023/04/22 11:45:36;;;;;;;5.13;3.38;;;24.20;99.90;;;;;;4973298;28;20257;-66
2023/04/22 11:48:03;;;;;;;3.38;2.95;;;24.50;99.90;;;;;;4973029;28;20064;-66
2023/04/22 11:50:31;;;;;;;3.35;3.05;;;24.10;99.90;;;;;;4974573;28;20225;-66
2023/04/22 11:53:03;;;;;;;5.93;3.28;;;24.00;99.90;;;;;;4974791;28;20570;-66
2023/04/22 11:55:34;;;;;;;3.03;2.72;;;24.20;99.90;;;;;;4973801;28;20053;-66
2023/04/22 11:58:08;;;;;;;3.95;2.20;;;24.20;99.90;;;;;;4957729;28;20100;-65
2023/04/22 12:00:37;;;;;;;4.82;2.08;;;24.10;99.90;;;;;;4940228;28;20380;-66
2023/04/22 12:03:26;;;;;;;3.38;1.92;;;24.50;99.90;;;;;;4940287;28;20448;-65
2023/04/22 12:05:57;;;;;;;2.08;1.77;;;24.30;99.90;;;;;;4939566;28;20050;-65
2023/04/22 12:08:25;;;;;;;2.38;1.63;;;24.60;99.90;;;;;;4955916;28;20073;-65
2023/04/22 12:10:54;;;;;;;2.50;1.73;;;24.50;99.90;;;;;;4939893;28;20034;-66
2023/04/22 12:13:27;;;;;;;3.42;2.78;;;23.90;99.90;;;;;;4955672;28;20069;-65
2023/04/22 12:16:04;;;;;;;2.90;2.60;;;23.90;99.90;;;;;;4945592;28;20495;-66
2023/04/22 12:18:38;;;;;;;4.10;3.03;;;23.70;99.90;;;;;;4962186;28;20058;-65
2023/04/22 12:21:11;;;;;;;2.95;2.22;;;23.90;99.90;;;;;;4963162;28;20583;-66
2023/04/22 12:23:52;;;;;;;3.75;2.38;;;24.40;99.90;;;;;;4944944;28;20195;-66
2023/04/22 12:26:19;;;;;;;2.83;1.73;;;25.00;99.90;;;;;;4961444;28;20136;-65
2023/04/22 12:28:45;;;;;;;1.83;1.42;;;25.30;99.90;;;;;;4962507;28;20085;-66
2023/04/22 12:31:12;;;;;;;1.75;1.40;;;25.60;99.90;;;;;;4960796;28;20105;-67
2023/04/22 12:33:38;;;;;;;1.77;1.40;;;25.20;99.90;;;;;;4967118;28;20041;-66
2023/04/22 12:36:04;;;;;;;3.55;1.70;;;24.80;97.60;;;;;;4926988;28;20397;-66